sensor_id;sensor_type;location;lat;lon;timestamp;pressure;altitude;pressure_sealevel;temperature;humidity
50123;BME280;36021;48.670;6.184;2023-05-07T00:00:32;98858.63;;;17.20;100.00
50123;BME280;36021;48.670;6.184;2023-05-07T00:02:59;98858.63;;;17.20;100.00
50123;BME280;36021;48.670;6.184;2023-05-07T00:05:24;98855.53;;;17.01;100.00
50123;BME280;36021;48.670;6.184;2023-05-07T00:07:50;98864.28;;;16.91;100.00
50123;BME280;36021;48.670;6.184;2023-05-07T00:10:18;98860.00;;;16.93;100.00
50123;BME280;36021;48.670;6.184;2023-05-07T00:12:43;98861.97;;;16.93;100.00
50123;BME280;36021;48.670;6.184;2023-05-07T00:15:09;98854.16;;;16.86;100.00
50123;BME280;36021;48.670;6.184;2023-05-07T00:17:34;98853.97;;;16.91;100.00
50123;BME280;36021;48.670;6.184;2023-05-07T00:20:00;98847.09;;;16.89;100.00
50123;BME280;36021;48.670;6.184;2023-05-07T00:22:25;98854.75;;;16.92;100.00
50123;BME280;36021;48.670;6.184;2023-05-07T00:24:51;98846.72;;;16.78;100.00
50123;BME280;36021;48.670;6.184;2023-05-07T00:27:16;98857.31;;;16.85;100.00
50123;BME280;36021;48.670;6.184;2023-05-07T00:29:42;98842.91;;;16.62;100.00
50123;BME280;36021;48.670;6.184;2023-05-07T00:32:07;98849.13;;;16.59;100.00
50123;BME280;36021;48.670;6.184;2023-05-07T00:34:33;98857.44;;;16.38;100.00
50123;BME280;36021;48.670;6.184;2023-05-07T00:36:59;98852.63;;;16.47;100.00
50123;BME280;36021;48.670;6.184;2023-05-07T00:39:24;98844.44;;;16.51;100.00
50123;BME280;36021;48.670;6.184;2023-05-07T00:41:49;98847.75;;;16.44;100.00
50123;BME280;36021;48.670;6.184;2023-05-07T00:44:16;98847.00;;;16.35;100.00
50123;BME280;36021;48.670;6.184;2023-05-07T00:46:43;98840.41;;;16.40;100.00
50123;BME280;36021;48.670;6.184;2023-05-07T00:49:10;98844.50;;;16.42;100.00
50123;BME280;36021;48.670;6.184;2023-05-07T00:51:35;98844.91;;;16.32;100.00
50123;BME280;36021;48.670;6.184;2023-05-07T00:54:02;98841.63;;;16.30;100.00
50123;BME280;36021;48.670;6.184;2023-05-07T00:56:28;98840.03;;;16.21;100.00
50123;BME280;36021;48.670;6.184;2023-05-07T00:58:54;98838.75;;;16.18;100.00
50123;BME280;36021;48.670;6.184;2023-05-07T01:01:20;98845.28;;;16.22;100.00
50123;BME280;36021;48.670;6.184;2023-05-07T01:03:46;98842.97;;;16.24;100.00
50123;BME280;36021;48.670;6.184;2023-05-07T01:06:12;98848.81;;;16.31;100.00
50123;BME280;36021;48.670;6.184;2023-05-07T01:08:39;98837.97;;;16.38;100.00
50123;BME280;36021;48.670;6.184;2023-05-07T01:11:05;98834.75;;;16.28;100.00
50123;BME280;36021;48.670;6.184;2023-05-07T01:13:31;98826.50;;;16.19;100.00
50123;BME280;36021;48.670;6.184;2023-05-07T01:15:57;98832.06;;;16.19;100.00
50123;BME280;36021;48.670;6.184;2023-05-07T01:18:24;98828.00;;;16.08;100.00
50123;BME280;36021;48.670;6.184;2023-05-07T01:20:51;98819.00;;;16.11;100.00
50123;BME280;36021;48.670;6.184;2023-05-07T01:23:19;98820.94;;;16.19;100.00
50123;BME280;36021;48.670;6.184;2023-05-07T01:25:52;98824.00;;;16.26;100.00
50123;BME280;36021;48.670;6.184;2023-05-07T01:28:21;98832.13;;;16.31;100.00
50123;BME280;36021;48.670;6.184;2023-05-07T01:30:48;98825.88;;;16.34;100.00
50123;BME280;36021;48.670;6.184;2023-05-07T01:33:15;98828.06;;;16.29;100.00
50123;BME280;36021;48.670;6.184;2023-05-07T01:35:44;98830.72;;;16.16;100.00
50123;BME280;36021;48.670;6.184;2023-05-07T01:38:10;98824.28;;;16.04;100.00
50123;BME280;36021;48.670;6.184;2023-05-07T01:40:37;98818.75;;;15.95;100.00
50123;BME280;36021;48.670;6.184;2023-05-07T01:43:05;98833.78;;;16.03;100.00
50123;BME280;36021;48.670;6.184;2023-05-07T01:45:34;98823.66;;;15.98;100.00
50123;BME280;36021;48.670;6.184;2023-05-07T01:48:01;98820.66;;;16.03;100.00
50123;BME280;36021;48.670;6.184;2023-05-07T01:50:27;98828.69;;;16.05;100.00
50123;BME280;36021;48.670;6.184;2023-05-07T01:52:52;98830.50;;;16.01;100.00
50123;BME280;36021;48.670;6.184;2023-05-07T01:55:18;98837.00;;;15.76;100.00
50123;BME280;36021;48.670;6.184;2023-05-07T01:57:43;98832.88;;;15.82;100.00
50123;BME280;36021;48.670;6.184;2023-05-07T02:00:11;98830.31;;;15.77;100.00
50123;BME280;36021;48.670;6.184;2023-05-07T02:02:43;98837.31;;;15.83;100.00
50123;BME280;36021;48.670;6.184;2023-05-07T02:05:21;98829.44;;;15.85;100.00
50123;BME280;36021;48.670;6.184;2023-05-07T02:07:54;98835.50;;;15.78;100.00
50123;BME280;36021;48.670;6.184;2023-05-07T02:10:20;98849.59;;;15.73;100.00
50123;BME280;36021;48.670;6.184;2023-05-07T02:12:46;98841.31;;;15.56;100.00
50123;BME280;36021;48.670;6.184;2023-05-07T02:15:11;98834.28;;;15.58;100.00
50123;BME280;36021;48.670;6.184;2023-05-07T02:17:57;98839.69;;;15.63;100.00
50123;BME280;36021;48.670;6.184;2023-05-07T02:20:24;98837.06;;;15.58;100.00
50123;BME280;36021;48.670;6.184;2023-05-07T02:22:49;98832.63;;;15.66;100.00
50123;BME280;36021;48.670;6.184;2023-05-07T02:25:15;98840.78;;;15.71;100.00
50123;BME280;36021;48.670;6.184;2023-05-07T02:27:42;98827.38;;;15.73;100.00
50123;BME280;36021;48.670;6.184;2023-05-07T02:30:08;98827.31;;;15.82;100.00
50123;BME280;36021;48.670;6.184;2023-05-07T02:32:34;98825.81;;;15.93;100.00
50123;BME280;36021;48.670;6.184;2023-05-07T02:35:00;98828.09;;;15.91;100.00
50123;BME280;36021;48.670;6.184;2023-05-07T02:37:25;98816.88;;;15.79;100.00
50123;BME280;36021;48.670;6.184;2023-05-07T02:39:51;98813.72;;;15.89;100.00
50123;BME280;36021;48.670;6.184;2023-05-07T02:42:18;98816.31;;;15.94;100.00
50123;BME280;36021;48.670;6.184;2023-05-07T02:44:44;98815.63;;;15.97;100.00
50123;BME280;36021;48.670;6.184;2023-05-07T02:47:12;98823.97;;;15.97;100.00
50123;BME280;36021;48.670;6.184;2023-05-07T02:49:39;98826.91;;;16.00;100.00
50123;BME280;36021;48.670;6.184;2023-05-07T02:52:06;98815.78;;;16.00;100.00
50123;BME280;36021;48.670;6.184;2023-05-07T02:54:32;98814.19;;;15.91;100.00
50123;BME280;36021;48.670;6.184;2023-05-07T02:56:58;98815.75;;;15.80;100.00
50123;BME280;36021;48.670;6.184;2023-05-07T02:59:27;98820.69;;;15.66;100.00
50123;BME280;36021;48.670;6.184;2023-05-07T03:01:52;98827.06;;;15.66;100.00
50123;BME280;36021;48.670;6.184;2023-05-07T03:04:18;98822.34;;;15.67;100.00
50123;BME280;36021;48.670;6.184;2023-05-07T03:06:45;98819.03;;;15.73;100.00
50123;BME280;36021;48.670;6.184;2023-05-07T03:09:11;98826.41;;;15.69;100.00
50123;BME280;36021;48.670;6.184;2023-05-07T03:11:36;98834.13;;;15.63;100.00
50123;BME280;36021;48.670;6.184;2023-05-07T03:14:02;98829.06;;;15.57;100.00
50123;BME280;36021;48.670;6.184;2023-05-07T03:16:27;98827.28;;;15.52;100.00
50123;BME280;36021;48.670;6.184;2023-05-07T03:18:53;98825.97;;;15.41;100.00
50123;BME280;36021;48.670;6.184;2023-05-07T03:21:19;98830.94;;;15.27;100.00
50123;BME280;36021;48.670;6.184;2023-05-07T03:23:44;98829.75;;;15.28;100.00
50123;BME280;36021;48.670;6.184;2023-05-07T03:26:11;98822.44;;;15.24;100.00
50123;BME280;36021;48.670;6.184;2023-05-07T03:28:37;98823.94;;;15.12;100.00
50123;BME280;36021;48.670;6.184;2023-05-07T03:31:07;98819.84;;;15.10;100.00
50123;BME280;36021;48.670;6.184;2023-05-07T03:33:33;98818.88;;;15.06;100.00
50123;BME280;36021;48.670;6.184;2023-05-07T03:35:59;98829.00;;;15.02;100.00
50123;BME280;36021;48.670;6.184;2023-05-07T03:38:25;98824.75;;;14.96;100.00
50123;BME280;36021;48.670;6.184;2023-05-07T03:40:51;98824.44;;;15.06;100.00
50123;BME280;36021;48.670;6.184;2023-05-07T03:43:17;98813.16;;;15.11;100.00
50123;BME280;36021;48.670;6.184;2023-05-07T03:45:49;98826.19;;;15.28;100.00
50123;BME280;36021;48.670;6.184;2023-05-07T03:48:20;98825.19;;;15.32;100.00
50123;BME280;36021;48.670;6.184;2023-05-07T03:50:47;98813.59;;;15.30;100.00
50123;BME280;36021;48.670;6.184;2023-05-07T03:53:16;98815.38;;;15.35;100.00
50123;BME280;36021;48.670;6.184;2023-05-07T03:55:41;98815.88;;;15.28;100.00
50123;BME280;36021;48.670;6.184;2023-05-07T03:58:07;98820.13;;;15.34;100.00
50123;BME280;36021;48.670;6.184;2023-05-07T04:00:34;98821.59;;;15.40;100.00
50123;BME280;36021;48.670;6.184;2023-05-07T04:03:13;98821.38;;;15.45;100.00
50123;BME280;36021;48.670;6.184;2023-05-07T04:05:39;98827.28;;;15.52;100.00
50123;BME280;36021;48.670;6.184;2023-05-07T04:08:07;98833.97;;;15.51;100.00
50123;BME280;36021;48.670;6.184;2023-05-07T04:10:40;98842.63;;;15.58;100.00
50123;BME280;36021;48.670;6.184;2023-05-07T04:13:09;98843.78;;;15.49;100.00
50123;BME280;36021;48.670;6.184;2023-05-07T04:15:35;98848.91;;;15.21;100.00
50123;BME280;36021;48.670;6.184;2023-05-07T04:18:01;98853.16;;;15.27;100.00
50123;BME280;36021;48.670;6.184;2023-05-07T04:20:26;98844.16;;;15.22;100.00
50123;BME280;36021;48.670;6.184;2023-05-07T04:22:58;98850.56;;;15.13;100.00
50123;BME280;36021;48.670;6.184;2023-05-07T04:25:24;98859.03;;;15.17;100.00
50123;BME280;36021;48.670;6.184;2023-05-07T04:27:54;98858.72;;;15.10;100.00
50123;BME280;36021;48.670;6.184;2023-05-07T04:30:21;98853.31;;;15.22;100.00
50123;BME280;36021;48.670;6.184;2023-05-07T04:32:46;98862.78;;;15.30;100.00
50123;BME280;36021;48.670;6.184;2023-05-07T04:35:13;98860.47;;;15.40;100.00
50123;BME280;36021;48.670;6.184;2023-05-07T04:37:38;98858.34;;;15.37;100.00
50123;BME280;36021;48.670;6.184;2023-05-07T04:40:06;98858.50;;;15.41;100.00
50123;BME280;36021;48.670;6.184;2023-05-07T04:42:32;98848.03;;;15.46;100.00
50123;BME280;36021;48.670;6.184;2023-05-07T04:45:04;98856.56;;;15.50;100.00
50123;BME280;36021;48.670;6.184;2023-05-07T04:47:32;98855.72;;;15.49;100.00
50123;BME280;36021;48.670;6.184;2023-05-07T04:50:00;98854.91;;;15.49;100.00
50123;BME280;36021;48.670;6.184;2023-05-07T04:52:26;98862.41;;;15.48;100.00
50123;BME280;36021;48.670;6.184;2023-05-07T04:54:52;98867.31;;;15.60;100.00
50123;BME280;36021;48.670;6.184;2023-05-07T04:57:18;98862.19;;;15.71;100.00
50123;BME280;36021;48.670;6.184;2023-05-07T04:59:45;98868.69;;;15.83;100.00
50123;BME280;36021;48.670;6.184;2023-05-07T05:02:10;98869.50;;;15.84;100.00
50123;BME280;36021;48.670;6.184;2023-05-07T05:04:36;98882.06;;;15.90;100.00
50123;BME280;36021;48.670;6.184;2023-05-07T05:07:04;98896.81;;;15.82;100.00
50123;BME280;36021;48.670;6.184;2023-05-07T05:09:30;98891.72;;;15.84;100.00
50123;BME280;36021;48.670;6.184;2023-05-07T05:11:56;98893.19;;;15.90;100.00
50123;BME280;36021;48.670;6.184;2023-05-07T05:14:21;98895.78;;;15.95;100.00
50123;BME280;36021;48.670;6.184;2023-05-07T05:16:47;98895.78;;;15.95;100.00
50123;BME280;36021;48.670;6.184;2023-05-07T05:19:14;98903.28;;;16.03;100.00
50123;BME280;36021;48.670;6.184;2023-05-07T05:21:40;98908.84;;;16.03;100.00
50123;BME280;36021;48.670;6.184;2023-05-07T05:24:08;98911.63;;;15.94;100.00
50123;BME280;36021;48.670;6.184;2023-05-07T05:26:34;98911.84;;;15.89;100.00
50123;BME280;36021;48.670;6.184;2023-05-07T05:29:00;98919.00;;;15.90;100.00
50123;BME280;36021;48.670;6.184;2023-05-07T05:31:29;98922.44;;;15.87;100.00
50123;BME280;36021;48.670;6.184;2023-05-07T05:33:55;98923.56;;;15.95;100.00
50123;BME280;36021;48.670;6.184;2023-05-07T05:36:20;98930.13;;;15.90;100.00
50123;BME280;36021;48.670;6.184;2023-05-07T05:38:47;98925.22;;;15.96;100.00
50123;BME280;36021;48.670;6.184;2023-05-07T05:41:13;98927.66;;;15.97;100.00
50123;BME280;36021;48.670;6.184;2023-05-07T05:43:39;98927.50;;;15.94;100.00
50123;BME280;36021;48.670;6.184;2023-05-07T05:46:06;98932.59;;;15.92;100.00
50123;BME280;36021;48.670;6.184;2023-05-07T05:48:33;98932.59;;;15.92;100.00
50123;BME280;36021;48.670;6.184;2023-05-07T05:51:00;98934.69;;;15.95;100.00
50123;BME280;36021;48.670;6.184;2023-05-07T05:53:26;98938.63;;;15.94;100.00
50123;BME280;36021;48.670;6.184;2023-05-07T05:55:52;98942.06;;;15.99;100.00
50123;BME280;36021;48.670;6.184;2023-05-07T05:58:19;98939.22;;;16.08;100.00
50123;BME280;36021;48.670;6.184;2023-05-07T06:00:51;98945.09;;;16.15;100.00
50123;BME280;36021;48.670;6.184;2023-05-07T06:03:19;98953.47;;;16.06;100.00
50123;BME280;36021;48.670;6.184;2023-05-07T06:05:46;98941.84;;;16.13;100.00
50123;BME280;36021;48.670;6.184;2023-05-07T06:08:11;98930.84;;;16.16;100.00
50123;BME280;36021;48.670;6.184;2023-05-07T06:10:38;98940.81;;;16.26;100.00
50123;BME280;36021;48.670;6.184;2023-05-07T06:13:06;98934.03;;;16.36;100.00
50123;BME280;36021;48.670;6.184;2023-05-07T06:15:33;98925.03;;;16.39;100.00
50123;BME280;36021;48.670;6.184;2023-05-07T06:18:04;98921.72;;;16.45;100.00
50123;BME280;36021;48.670;6.184;2023-05-07T06:20:30;98928.53;;;16.56;100.00
50123;BME280;36021;48.670;6.184;2023-05-07T06:22:57;98928.53;;;16.56;100.00
50123;BME280;36021;48.670;6.184;2023-05-07T06:25:22;98936.22;;;16.59;100.00
50123;BME280;36021;48.670;6.184;2023-05-07T06:27:50;98937.53;;;16.62;100.00
50123;BME280;36021;48.670;6.184;2023-05-07T06:30:15;98940.44;;;16.65;100.00
50123;BME280;36021;48.670;6.184;2023-05-07T06:32:41;98949.22;;;16.76;100.00
50123;BME280;36021;48.670;6.184;2023-05-07T06:35:07;98948.28;;;16.93;100.00
50123;BME280;36021;48.670;6.184;2023-05-07T06:37:35;98947.56;;;17.04;100.00
50123;BME280;36021;48.670;6.184;2023-05-07T06:40:08;98943.25;;;17.28;100.00
50123;BME280;36021;48.670;6.184;2023-05-07T06:42:37;98957.38;;;17.43;100.00
50123;BME280;36021;48.670;6.184;2023-05-07T06:45:22;98955.63;;;17.59;100.00
50123;BME280;36021;48.670;6.184;2023-05-07T06:47:47;98950.06;;;17.59;100.00
50123;BME280;36021;48.670;6.184;2023-05-07T06:50:13;98950.53;;;17.74;100.00
50123;BME280;36021;48.670;6.184;2023-05-07T06:52:42;98945.03;;;17.86;100.00
50123;BME280;36021;48.670;6.184;2023-05-07T06:55:08;98953.16;;;17.91;100.00
50123;BME280;36021;48.670;6.184;2023-05-07T06:57:33;98950.63;;;17.98;100.00
50123;BME280;36021;48.670;6.184;2023-05-07T07:00:01;98947.84;;;17.98;100.00
50123;BME280;36021;48.670;6.184;2023-05-07T07:02:27;98947.06;;;18.09;100.00
50123;BME280;36021;48.670;6.184;2023-05-07T07:04:52;98934.13;;;18.05;100.00
50123;BME280;36021;48.670;6.184;2023-05-07T07:07:19;98939.59;;;18.13;100.00
50123;BME280;36021;48.670;6.184;2023-05-07T07:09:47;98946.19;;;17.85;100.00
50123;BME280;36021;48.670;6.184;2023-05-07T07:12:15;98951.56;;;17.90;100.00
50123;BME280;36021;48.670;6.184;2023-05-07T07:14:42;98952.00;;;17.92;100.00
50123;BME280;36021;48.670;6.184;2023-05-07T07:17:07;98947.13;;;17.89;100.00
50123;BME280;36021;48.670;6.184;2023-05-07T07:19:33;98947.38;;;17.96;100.00
50123;BME280;36021;48.670;6.184;2023-05-07T07:22:01;98944.84;;;18.03;100.00
50123;BME280;36021;48.670;6.184;2023-05-07T07:24:27;98939.34;;;17.94;100.00
50123;BME280;36021;48.670;6.184;2023-05-07T07:26:57;98947.25;;;17.92;100.00
50123;BME280;36021;48.670;6.184;2023-05-07T07:29:26;98944.78;;;17.91;100.00
50123;BME280;36021;48.670;6.184;2023-05-07T07:31:52;98940.63;;;17.97;100.00
50123;BME280;36021;48.670;6.184;2023-05-07T07:34:19;98942.81;;;17.91;100.00
50123;BME280;36021;48.670;6.184;2023-05-07T07:36:44;98935.66;;;18.02;100.00
50123;BME280;36021;48.670;6.184;2023-05-07T07:39:10;98933.91;;;18.10;100.00
50123;BME280;36021;48.670;6.184;2023-05-07T07:41:38;98930.66;;;18.20;100.00
50123;BME280;36021;48.670;6.184;2023-05-07T07:44:03;98938.44;;;18.27;100.00
50123;BME280;36021;48.670;6.184;2023-05-07T07:46:35;98935.09;;;18.33;100.00
50123;BME280;36021;48.670;6.184;2023-05-07T07:49:02;98931.47;;;18.33;100.00
50123;BME280;36021;48.670;6.184;2023-05-07T07:51:28;98942.44;;;18.26;100.00
50123;BME280;36021;48.670;6.184;2023-05-07T07:53:54;98942.88;;;18.28;100.00
50123;BME280;36021;48.670;6.184;2023-05-07T07:56:21;98939.97;;;18.24;100.00
50123;BME280;36021;48.670;6.184;2023-05-07T07:58:47;98936.59;;;18.31;100.00
50123;BME280;36021;48.670;6.184;2023-05-07T08:01:13;98941.38;;;18.30;100.00
50123;BME280;36021;48.670;6.184;2023-05-07T08:03:39;98941.84;;;18.32;100.00
50123;BME280;36021;48.670;6.184;2023-05-07T08:06:06;98940.69;;;18.45;100.00
50123;BME280;36021;48.670;6.184;2023-05-07T08:08:34;98945.38;;;18.53;100.00
50123;BME280;36021;48.670;6.184;2023-05-07T08:11:00;98949.66;;;18.63;100.00
50123;BME280;36021;48.670;6.184;2023-05-07T08:13:30;98945.84;;;18.67;100.00
50123;BME280;36021;48.670;6.184;2023-05-07T08:15:56;98933.72;;;18.88;100.00
50123;BME280;36021;48.670;6.184;2023-05-07T08:18:22;98933.53;;;19.08;100.00
50123;BME280;36021;48.670;6.184;2023-05-07T08:20:50;98927.94;;;19.20;100.00
50123;BME280;36021;48.670;6.184;2023-05-07T08:23:20;98921.81;;;19.31;100.00
50123;BME280;36021;48.670;6.184;2023-05-07T08:25:46;98925.06;;;19.45;100.00
50123;BME280;36021;48.670;6.184;2023-05-07T08:28:14;98925.16;;;19.48;100.00
50123;BME280;36021;48.670;6.184;2023-05-07T08:30:40;98922.56;;;19.55;100.00
50123;BME280;36021;48.670;6.184;2023-05-07T08:33:06;98918.50;;;19.53;100.00
50123;BME280;36021;48.670;6.184;2023-05-07T08:35:33;98926.09;;;19.52;100.00
50123;BME280;36021;48.670;6.184;2023-05-07T08:37:59;98929.09;;;19.59;100.00
50123;BME280;36021;48.670;6.184;2023-05-07T08:40:25;98920.97;;;19.70;100.00
50123;BME280;36021;48.670;6.184;2023-05-07T08:42:53;98917.81;;;19.71;100.00
50123;BME280;36021;48.670;6.184;2023-05-07T08:45:20;98912.84;;;19.65;100.00
50123;BME280;36021;48.670;6.184;2023-05-07T08:47:50;98918.16;;;19.54;100.00
50123;BME280;36021;48.670;6.184;2023-05-07T08:50:19;98909.38;;;19.40;100.00
50123;BME280;36021;48.670;6.184;2023-05-07T08:52:45;98907.47;;;19.44;100.00
50123;BME280;36021;48.670;6.184;2023-05-07T08:55:11;98912.75;;;19.34;100.00
50123;BME280;36021;48.670;6.184;2023-05-07T08:57:38;98905.53;;;19.33;100.00
50123;BME280;36021;48.670;6.184;2023-05-07T09:00:04;98913.34;;;19.27;100.00
50123;BME280;36021;48.670;6.184;2023-05-07T09:02:36;98913.78;;;19.41;100.00
50123;BME280;36021;48.670;6.184;2023-05-07T09:05:02;98926.59;;;19.42;100.00
50123;BME280;36021;48.670;6.184;2023-05-07T09:07:29;98927.34;;;19.55;100.00
50123;BME280;36021;48.670;6.184;2023-05-07T09:09:57;98931.16;;;19.62;100.00
50123;BME280;36021;48.670;6.184;2023-05-07T09:12:24;98936.25;;;19.45;100.00
50123;BME280;36021;48.670;6.184;2023-05-07T09:14:49;98951.25;;;18.88;100.00
50123;BME280;36021;48.670;6.184;2023-05-07T09:17:16;98962.22;;;18.57;100.00
50123;BME280;36021;48.670;6.184;2023-05-07T09:19:42;98968.19;;;18.22;100.00
50123;BME280;36021;48.670;6.184;2023-05-07T09:22:09;98976.50;;;17.86;100.00
50123;BME280;36021;48.670;6.184;2023-05-07T09:24:47;98976.13;;;17.76;100.00
50123;BME280;36021;48.670;6.184;2023-05-07T09:27:13;98982.88;;;17.87;100.00
50123;BME280;36021;48.670;6.184;2023-05-07T09:29:40;98983.28;;;17.64;100.00
50123;BME280;36021;48.670;6.184;2023-05-07T09:32:06;98982.38;;;17.52;100.00
50123;BME280;36021;48.670;6.184;2023-05-07T09:34:32;98990.00;;;17.43;100.00
50123;BME280;36021;48.670;6.184;2023-05-07T09:37:05;98982.59;;;17.26;100.00
50123;BME280;36021;48.670;6.184;2023-05-07T09:39:41;98986.72;;;17.41;100.00
50123;BME280;36021;48.670;6.184;2023-05-07T09:42:08;98987.91;;;17.60;100.00
50123;BME280;36021;48.670;6.184;2023-05-07T09:44:35;98990.75;;;17.73;100.00
50123;BME280;36021;48.670;6.184;2023-05-07T09:47:04;98987.66;;;17.86;100.00
50123;BME280;36021;48.670;6.184;2023-05-07T09:49:36;98985.03;;;18.02;100.00
50123;BME280;36021;48.670;6.184;2023-05-07T09:52:06;98989.50;;;18.15;100.00
50123;BME280;36021;48.670;6.184;2023-05-07T09:54:36;99001.59;;;18.19;100.00
50123;BME280;36021;48.670;6.184;2023-05-07T09:57:03;98998.09;;;18.22;100.00
50123;BME280;36021;48.670;6.184;2023-05-07T09:59:30;99006.91;;;18.12;100.00
50123;BME280;36021;48.670;6.184;2023-05-07T10:01:59;99003.63;;;18.10;100.00
50123;BME280;36021;48.670;6.184;2023-05-07T10:04:25;99010.47;;;18.00;100.00
50123;BME280;36021;48.670;6.184;2023-05-07T10:06:52;99008.31;;;18.06;100.00
50123;BME280;36021;48.670;6.184;2023-05-07T10:09:19;98997.94;;;18.06;100.00
50123;BME280;36021;48.670;6.184;2023-05-07T10:11:45;99011.53;;;18.08;100.00
50123;BME280;36021;48.670;6.184;2023-05-07T10:14:11;99013.91;;;18.18;100.00
50123;BME280;36021;48.670;6.184;2023-05-07T10:16:39;99020.19;;;18.15;100.00
50123;BME280;36021;48.670;6.184;2023-05-07T10:19:10;99024.13;;;18.14;100.00
50123;BME280;36021;48.670;6.184;2023-05-07T10:21:36;99026.78;;;18.22;100.00
50123;BME280;36021;48.670;6.184;2023-05-07T10:24:08;99027.84;;;18.18;100.00
50123;BME280;36021;48.670;6.184;2023-05-07T10:26:41;99041.66;;;18.14;100.00
50123;BME280;36021;48.670;6.184;2023-05-07T10:32:10;99039.75;;;17.94;100.00
50123;BME280;36021;48.670;6.184;2023-05-07T10:34:41;99036.75;;;17.99;100.00
50123;BME280;36021;48.670;6.184;2023-05-07T10:37:09;99040.88;;;17.93;100.00
50123;BME280;36021;48.670;6.184;2023-05-07T10:39:36;99038.91;;;17.94;100.00
50123;BME280;36021;48.670;6.184;2023-05-07T10:42:09;99041.78;;;18.06;100.00
50123;BME280;36021;48.670;6.184;2023-05-07T10:44:38;99038.03;;;18.02;100.00
50123;BME280;36021;48.670;6.184;2023-05-07T10:47:09;99037.09;;;17.98;100.00
50123;BME280;36021;48.670;6.184;2023-05-07T10:49:46;99041.56;;;18.23;100.00
50123;BME280;36021;48.670;6.184;2023-05-07T10:52:27;99045.09;;;18.32;100.00
50123;BME280;36021;48.670;6.184;2023-05-07T10:55:20;99047.41;;;18.30;100.00
50123;BME280;36021;48.670;6.184;2023-05-07T11:00:49;99046.47;;;18.26;100.00
50123;BME280;36021;48.670;6.184;2023-05-07T11:03:25;99048.22;;;18.31;100.00
50123;BME280;36021;48.670;6.184;2023-05-07T11:06:11;99043.72;;;18.38;100.00
50123;BME280;36021;48.670;6.184;2023-05-07T11:14:13;99033.25;;;18.35;100.00
50123;BME280;36021;48.670;6.184;2023-05-07T11:16:45;99043.16;;;18.45;100.00
50123;BME280;36021;48.670;6.184;2023-05-07T11:22:35;99035.81;;;18.40;100.00
50123;BME280;36021;48.670;6.184;2023-05-07T11:25:17;99050.69;;;18.32;100.00
50123;BME280;36021;48.670;6.184;2023-05-07T11:27:43;99051.25;;;18.38;100.00
50123;BME280;36021;48.670;6.184;2023-05-07T11:30:16;99049.94;;;18.56;100.00
50123;BME280;36021;48.670;6.184;2023-05-07T11:32:42;99037.38;;;18.62;100.00
50123;BME280;36021;48.670;6.184;2023-05-07T11:35:08;99046.56;;;18.50;100.00
50123;BME280;36021;48.670;6.184;2023-05-07T11:37:34;99037.06;;;18.43;100.00
50123;BME280;36021;48.670;6.184;2023-05-07T11:40:03;99037.03;;;18.51;100.00
50123;BME280;36021;48.670;6.184;2023-05-07T11:42:32;99034.06;;;18.48;100.00
50123;BME280;36021;48.670;6.184;2023-05-07T11:44:59;99043.06;;;18.53;100.00
50123;BME280;36021;48.670;6.184;2023-05-07T11:47:25;99028.19;;;18.61;100.00
50123;BME280;36021;48.670;6.184;2023-05-07T11:49:51;99029.22;;;18.69;100.00
50123;BME280;36021;48.670;6.184;2023-05-07T11:52:18;99032.47;;;18.59;100.00
50123;BME280;36021;48.670;6.184;2023-05-07T11:54:54;99036.31;;;18.79;100.00
50123;BME280;36021;48.670;6.184;2023-05-07T11:57:21;99043.09;;;18.78;100.00
50123;BME280;36021;48.670;6.184;2023-05-07T11:59:46;99028.13;;;18.49;100.00
50123;BME280;36021;48.670;6.184;2023-05-07T12:02:15;99033.53;;;18.54;100.00
50123;BME280;36021;48.670;6.184;2023-05-07T12:04:41;99040.41;;;18.57;100.00
50123;BME280;36021;48.670;6.184;2023-05-07T12:07:13;99043.06;;;18.65;100.00
50123;BME280;36021;48.670;6.184;2023-05-07T12:09:39;99040.53;;;18.72;100.00
50123;BME280;36021;48.670;6.184;2023-05-07T12:12:05;99043.44;;;18.76;100.00
50123;BME280;36021;48.670;6.184;2023-05-07T12:14:30;99040.53;;;18.85;100.00
50123;BME280;36021;48.670;6.184;2023-05-07T12:16:56;99044.16;;;18.97;100.00
50123;BME280;36021;48.670;6.184;2023-05-07T12:19:22;99043.75;;;19.11;100.00
50123;BME280;36021;48.670;6.184;2023-05-07T12:21:49;99042.81;;;19.31;100.00
50123;BME280;36021;48.670;6.184;2023-05-07T12:24:14;99043.53;;;19.28;100.00
50123;BME280;36021;48.670;6.184;2023-05-07T12:26:40;99033.38;;;19.60;100.00
50123;BME280;36021;48.670;6.184;2023-05-07T12:29:07;99037.00;;;19.48;100.00
50123;BME280;36021;48.670;6.184;2023-05-07T12:31:32;99032.00;;;19.82;100.00
50123;BME280;36021;48.670;6.184;2023-05-07T12:33:58;99032.81;;;19.82;100.00
50123;BME280;36021;48.670;6.184;2023-05-07T12:36:24;99029.06;;;20.06;100.00
50123;BME280;36021;48.670;6.184;2023-05-07T12:38:51;99032.81;;;20.25;100.00
50123;BME280;36021;48.670;6.184;2023-05-07T12:41:17;99030.53;;;20.43;100.00
50123;BME280;36021;48.670;6.184;2023-05-07T12:43:44;99031.16;;;20.52;100.00
50123;BME280;36021;48.670;6.184;2023-05-07T12:46:09;99037.59;;;20.53;100.00
50123;BME280;36021;48.670;6.184;2023-05-07T12:48:38;99032.28;;;20.63;100.00
50123;BME280;36021;48.670;6.184;2023-05-07T12:51:04;99032.25;;;20.79;100.00
50123;BME280;36021;48.670;6.184;2023-05-07T12:53:30;99033.44;;;20.78;100.00
50123;BME280;36021;48.670;6.184;2023-05-07T12:55:57;99027.81;;;20.78;100.00
50123;BME280;36021;48.670;6.184;2023-05-07T12:58:27;99023.41;;;20.93;100.00
50123;BME280;36021;48.670;6.184;2023-05-07T13:00:56;99029.47;;;21.10;100.00
50123;BME280;36021;48.670;6.184;2023-05-07T13:03:25;99031.09;;;21.11;100.00
50123;BME280;36021;48.670;6.184;2023-05-07T13:05:51;99032.50;;;21.21;100.00